createdAt,value
2018-11-26T00:01:28.927Z,95.40
2018-11-26T00:03:56.438Z,95.50
2018-11-26T00:06:24.005Z,95.60
2018-11-26T00:08:51.546Z,95.50
2018-11-26T00:11:30.655Z,95.50
2018-11-26T00:13:58.306Z,95.50
2018-11-26T00:16:25.823Z,95.60
2018-11-26T00:18:53.343Z,95.60
2018-11-26T00:21:20.894Z,95.70
2018-11-26T00:23:48.427Z,95.90
2018-11-26T00:26:15.918Z,95.70
2018-11-26T00:28:43.487Z,96.10
2018-11-26T00:31:10.983Z,96.20
2018-11-26T00:33:38.513Z,96.20
2018-11-26T00:36:06.211Z,96.30
2018-11-26T00:38:33.772Z,96.30
2018-11-26T00:41:01.280Z,96.30
2018-11-26T00:43:28.858Z,96.30
2018-11-26T00:45:56.328Z,96.40
2018-11-26T00:48:23.850Z,96.50
2018-11-26T00:50:51.319Z,96.50
2018-11-26T00:53:18.838Z,96.40
2018-11-26T00:55:46.392Z,96.40
2018-11-26T00:58:13.845Z,96.40
2018-11-26T01:00:41.379Z,96.50
2018-11-26T01:03:08.823Z,96.40
2018-11-26T01:05:38.042Z,96.40
2018-11-26T01:08:05.793Z,96.20
2018-11-26T01:10:33.413Z,96.20
2018-11-26T01:13:01.002Z,96.20
2018-11-26T01:15:28.566Z,96.30
2018-11-26T01:17:56.062Z,96.30
2018-11-26T01:20:23.575Z,96.40
2018-11-26T01:22:51.105Z,96.40
2018-11-26T01:25:18.650Z,96.30
2018-11-26T01:27:46.098Z,96.40
2018-11-26T01:30:13.692Z,96.20
2018-11-26T01:32:41.308Z,96.10
2018-11-26T01:35:08.923Z,96.20
2018-11-26T01:37:36.447Z,96.20
2018-11-26T01:40:06.651Z,96.30
2018-11-26T01:42:34.132Z,96.10
2018-11-26T01:45:02.167Z,96.10
2018-11-26T01:47:29.614Z,96.20
2018-11-26T01:49:57.151Z,96.30
2018-11-26T01:52:24.596Z,96.20
2018-11-26T01:54:52.143Z,96.30
2018-11-26T01:57:19.587Z,96.40
2018-11-26T01:59:47.137Z,96.40
2018-11-26T02:02:14.647Z,96.60
2018-11-26T02:04:42.142Z,96.60
2018-11-26T02:07:09.703Z,96.80
2018-11-26T02:09:37.195Z,96.90
2018-11-26T02:12:04.924Z,96.90
2018-11-26T02:14:32.447Z,96.80
2018-11-26T02:17:00.010Z,96.80
2018-11-26T02:19:27.480Z,96.90
2018-11-26T02:21:55.021Z,97.00
2018-11-26T02:24:22.479Z,97.20
2018-11-26T02:26:50.038Z,97.40
2018-11-26T02:29:17.505Z,97.40
2018-11-26T02:31:45.136Z,97.50
2018-11-26T02:34:12.605Z,97.50
2018-11-26T02:36:40.135Z,97.90
2018-11-26T02:39:07.660Z,97.60
2018-11-26T02:41:35.181Z,97.50
2018-11-26T02:44:02.730Z,97.30
2018-11-26T02:46:30.220Z,97.40
2018-11-26T02:48:57.811Z,97.50
2018-11-26T02:51:25.297Z,97.40
2018-11-26T02:53:52.905Z,97.30
2018-11-26T02:56:20.380Z,97.20
2018-11-26T02:58:47.913Z,96.90
2018-11-26T03:01:15.471Z,96.80
2018-11-26T03:03:43.031Z,96.80
2018-11-26T03:06:10.505Z,97.00
2018-11-26T03:08:38.041Z,97.00
2018-11-26T03:11:05.557Z,96.80
2018-11-26T03:13:33.155Z,96.80
2018-11-26T03:16:00.844Z,96.80
2018-11-26T03:18:28.379Z,96.80
2018-11-26T03:20:55.899Z,96.90
2018-11-26T03:23:23.359Z,97.10
2018-11-26T03:25:50.871Z,96.80
2018-11-26T03:28:18.372Z,96.80
2018-11-26T03:30:45.910Z,97.10
2018-11-26T03:33:13.387Z,97.10
2018-11-26T03:35:40.943Z,97.20
2018-11-26T03:38:11.885Z,97.20
2018-11-26T03:40:39.452Z,97.40
2018-11-26T03:43:06.990Z,97.40
2018-11-26T03:45:34.525Z,97.30
2018-11-26T03:48:01.991Z,97.70
2018-11-26T03:50:29.560Z,97.90
2018-11-26T03:52:57.023Z,98.00
2018-11-26T03:55:24.535Z,98.20
2018-11-26T03:57:52.076Z,98.20
2018-11-26T04:00:19.522Z,98.20
2018-11-26T04:02:47.018Z,98.10
2018-11-26T04:05:14.461Z,98.20
2018-11-26T04:07:42.018Z,98.30
2018-11-26T04:10:10.523Z,98.20
2018-11-26T04:12:38.052Z,98.30
2018-11-26T04:15:07.441Z,98.30
2018-11-26T04:17:34.982Z,98.50
2018-11-26T04:20:02.469Z,98.50
2018-11-26T04:22:30.005Z,98.60
2018-11-26T04:24:57.458Z,98.70
2018-11-26T04:27:25.002Z,98.70
2018-11-26T04:29:52.458Z,98.80
2018-11-26T04:32:19.993Z,98.90
2018-11-26T04:34:47.457Z,98.70
2018-11-26T04:37:14.961Z,98.50
2018-11-26T04:39:42.432Z,98.30
2018-11-26T04:42:10.047Z,98.20
2018-11-26T04:44:37.630Z,98.30
2018-11-26T04:47:05.171Z,98.50
2018-11-26T04:49:32.703Z,98.50
2018-11-26T04:52:00.169Z,98.60
2018-11-26T04:54:27.727Z,98.80
2018-11-26T04:56:55.173Z,98.80
2018-11-26T04:59:22.715Z,98.50
2018-11-26T05:01:50.174Z,98.40
2018-11-26T05:04:17.767Z,98.20
2018-11-26T05:06:45.272Z,98.00
2018-11-26T05:09:12.770Z,97.80
2018-11-26T05:11:40.264Z,97.30
2018-11-26T05:14:07.851Z,97.10
2018-11-26T05:16:35.390Z,97.20
2018-11-26T05:19:02.866Z,97.00
2018-11-26T05:21:30.390Z,97.40
2018-11-26T05:23:57.861Z,97.50
2018-11-26T05:26:25.410Z,96.70
2018-11-26T05:28:52.890Z,96.90
2018-11-26T05:31:20.462Z,96.80
2018-11-26T05:33:47.922Z,96.70
2018-11-26T05:36:15.471Z,96.60
2018-11-26T05:38:42.935Z,96.60
2018-11-26T05:41:10.494Z,96.00
2018-11-26T05:43:37.982Z,95.80
2018-11-26T05:46:05.611Z,95.90
2018-11-26T05:48:33.097Z,95.70
2018-11-26T05:51:01.012Z,95.90
2018-11-26T05:53:28.554Z,96.20
2018-11-26T05:55:56.143Z,96.40
2018-11-26T05:58:23.590Z,96.00
2018-11-26T06:00:51.126Z,96.30
2018-11-26T06:03:18.619Z,96.00
2018-11-26T06:05:46.191Z,95.90
2018-11-26T06:08:13.659Z,95.30
2018-11-26T06:10:41.181Z,95.50
2018-11-26T06:13:08.829Z,95.50
2018-11-26T06:15:36.315Z,95.10
2018-11-26T06:18:04.018Z,95.40
2018-11-26T06:20:31.526Z,95.30
2018-11-26T06:22:59.094Z,95.20
2018-11-26T06:25:26.610Z,95.10
2018-11-26T06:27:54.199Z,95.20
2018-11-26T06:30:21.678Z,95.40
2018-11-26T06:32:49.221Z,95.30
2018-11-26T06:35:18.930Z,95.20
2018-11-26T06:37:46.486Z,95.20
2018-11-26T06:40:14.089Z,94.90
2018-11-26T06:42:41.736Z,95.00
2018-11-26T06:45:12.710Z,95.50
2018-11-26T06:47:40.755Z,95.20
2018-11-26T06:50:10.164Z,95.50
2018-11-26T06:52:37.731Z,95.60
2018-11-26T06:55:06.861Z,95.70
2018-11-26T06:57:34.320Z,95.60
2018-11-26T07:00:02.152Z,95.60
2018-11-26T07:02:29.614Z,95.70
2018-11-26T07:04:57.154Z,95.80
2018-11-26T07:07:24.622Z,95.80
2018-11-26T07:09:52.171Z,95.90
2018-11-26T07:12:19.663Z,96.00
2018-11-26T07:14:47.271Z,96.10
2018-11-26T07:17:21.335Z,96.00
2018-11-26T07:19:49.019Z,96.00
2018-11-26T07:22:16.522Z,96.00
2018-11-26T07:24:45.083Z,96.10
2018-11-26T07:27:12.562Z,96.20
2018-11-26T07:29:40.116Z,96.30
2018-11-26T07:32:07.597Z,96.40
2018-11-26T07:34:35.103Z,96.40
2018-11-26T07:37:02.727Z,96.80
2018-11-26T07:39:30.278Z,96.70
2018-11-26T07:41:57.794Z,96.80
2018-11-26T07:44:25.236Z,96.40
2018-11-26T07:46:52.892Z,96.50
2018-11-26T07:49:20.373Z,96.40
2018-11-26T07:51:47.923Z,96.50
2018-11-26T07:54:15.434Z,96.00
2018-11-26T07:56:42.968Z,96.30
2018-11-26T07:59:10.435Z,96.30
2018-11-26T08:01:38.036Z,96.00
2018-11-26T08:04:05.606Z,96.20
2018-11-26T08:06:33.178Z,95.60
2018-11-26T08:09:00.786Z,95.80
2018-11-26T08:11:28.378Z,95.70
2018-11-26T08:13:55.915Z,95.70
2018-11-26T08:16:23.454Z,95.70
2018-11-26T08:18:50.949Z,95.70
2018-11-26T08:21:18.494Z,95.40
2018-11-26T08:23:46.031Z,95.40
2018-11-26T08:26:13.482Z,95.40
2018-11-26T08:28:41.055Z,95.40
2018-11-26T08:31:08.519Z,95.30
2018-11-26T08:33:36.069Z,95.20
2018-11-26T08:36:09.305Z,95.10
2018-11-26T08:38:42.574Z,95.20
2018-11-26T08:41:13.982Z,95.00
2018-11-26T08:43:43.732Z,95.40
2018-11-26T08:46:12.370Z,95.40
2018-11-26T08:48:45.684Z,95.60
2018-11-26T08:51:13.186Z,95.50
2018-11-26T08:53:40.754Z,95.60
2018-11-26T08:56:08.238Z,95.60
2018-11-26T08:58:35.841Z,95.60
2018-11-26T09:01:05.210Z,95.90
2018-11-26T09:03:40.283Z,95.80
2018-11-26T09:06:07.755Z,95.50
2018-11-26T09:08:36.242Z,95.60
2018-11-26T09:11:04.538Z,95.30
2018-11-26T09:13:32.099Z,95.40
2018-11-26T09:15:59.658Z,95.80
2018-11-26T09:18:27.183Z,96.00
2018-11-26T09:20:54.725Z,95.90
2018-11-26T09:23:22.192Z,96.00
2018-11-26T09:25:49.763Z,96.30
2018-11-26T09:28:17.255Z,95.80
2018-11-26T09:30:44.822Z,95.90
2018-11-26T09:33:12.283Z,96.00
2018-11-26T09:35:39.845Z,95.60
2018-11-26T09:38:07.357Z,95.70
2018-11-26T09:40:35.024Z,95.90
2018-11-26T09:43:02.551Z,95.70
2018-11-26T09:45:30.137Z,95.60
2018-11-26T09:47:57.623Z,95.90
2018-11-26T09:50:25.137Z,95.80
2018-11-26T09:52:52.676Z,95.70
2018-11-26T09:55:20.196Z,95.60
2018-11-26T09:57:47.742Z,95.50
2018-11-26T10:00:16.381Z,95.40
2018-11-26T10:02:45.100Z,95.30
2018-11-26T10:05:13.938Z,95.20
2018-11-26T10:07:41.535Z,94.90
2018-11-26T10:10:10.380Z,95.00
2018-11-26T10:12:38.442Z,95.30
2018-11-26T10:15:13.588Z,95.50
2018-11-26T10:17:41.184Z,95.60
2018-11-26T10:20:09.593Z,95.60
2018-11-26T10:22:37.225Z,95.40
2018-11-26T10:25:06.171Z,95.50
2018-11-26T10:27:33.599Z,95.50
2018-11-26T10:30:01.407Z,95.90
2018-11-26T10:32:28.967Z,96.00
2018-11-26T10:34:56.441Z,96.00
2018-11-26T10:37:24.006Z,95.60
2018-11-26T10:39:51.589Z,95.60
2018-11-26T10:42:19.132Z,95.70
2018-11-26T10:44:46.711Z,95.60
2018-11-26T10:47:14.194Z,95.70
2018-11-26T10:49:41.740Z,96.20
2018-11-26T10:52:09.231Z,96.10
2018-11-26T10:54:36.847Z,96.10
2018-11-26T10:57:05.015Z,96.50
2018-11-26T10:59:32.555Z,96.60
2018-11-26T11:02:01.032Z,96.80
2018-11-26T11:04:28.803Z,96.80
2018-11-26T11:06:56.334Z,96.50
2018-11-26T11:09:23.928Z,96.60
2018-11-26T11:11:51.406Z,96.60
2018-11-26T11:14:19.009Z,96.70
2018-11-26T11:16:46.475Z,96.60
2018-11-26T11:19:14.050Z,96.40
2018-11-26T11:21:41.553Z,96.20
2018-11-26T11:24:09.133Z,96.30
2018-11-26T11:26:36.724Z,96.40
2018-11-26T11:29:04.244Z,96.50
2018-11-26T11:31:31.793Z,96.50
2018-11-26T11:33:59.334Z,96.80
2018-11-26T11:36:26.911Z,97.50
2018-11-26T11:38:54.435Z,96.90
2018-11-26T11:41:21.999Z,97.00
2018-11-26T11:43:49.551Z,96.80
2018-11-26T11:46:17.091Z,96.90
2018-11-26T11:48:44.567Z,97.00
2018-11-26T11:51:12.124Z,96.90
2018-11-26T11:53:39.594Z,97.00
2018-11-26T11:56:07.159Z,97.00
2018-11-26T11:58:34.631Z,97.50
2018-11-26T12:01:02.358Z,97.60
2018-11-26T12:03:29.823Z,97.90
2018-11-26T12:05:57.387Z,98.00
2018-11-26T12:08:24.878Z,98.20
2018-11-26T12:10:52.473Z,98.50
2018-11-26T12:13:20.012Z,98.80
2018-11-26T12:15:49.412Z,98.80
2018-11-26T12:18:17.017Z,99.10
2018-11-26T12:20:44.488Z,99.60
2018-11-26T12:23:12.097Z,99.90
2018-11-26T12:25:39.573Z,99.90
2018-11-26T12:28:07.209Z,99.90
2018-11-26T12:30:37.429Z,99.90
2018-11-26T12:33:05.306Z,99.90
2018-11-26T12:35:32.992Z,99.90
2018-11-26T12:38:00.827Z,99.90
2018-11-26T12:40:28.359Z,99.90
2018-11-26T12:42:57.132Z,99.90
2018-11-26T12:45:26.788Z,99.90
2018-11-26T12:47:54.368Z,99.90
2018-11-26T12:50:21.956Z,99.90
2018-11-26T12:52:49.502Z,99.90
2018-11-26T12:55:18.156Z,99.90
2018-11-26T12:57:46.639Z,99.90
2018-11-26T13:00:18.404Z,99.70
2018-11-26T13:02:47.372Z,99.70
2018-11-26T13:05:15.990Z,99.80
2018-11-26T13:07:43.568Z,99.90
2018-11-26T13:10:16.394Z,99.90
2018-11-26T13:12:44.266Z,99.90
2018-11-26T13:15:14.609Z,99.90
2018-11-26T13:17:42.222Z,99.80
2018-11-26T13:20:13.588Z,99.90
2018-11-26T13:22:41.132Z,99.90
2018-11-26T13:25:10.141Z,99.90
2018-11-26T13:27:38.372Z,99.80
2018-11-26T13:30:16.956Z,99.90
2018-11-26T13:32:46.026Z,99.90
2018-11-26T13:35:14.438Z,99.90
2018-11-26T13:37:42.076Z,99.90
2018-11-26T13:40:13.611Z,99.90
2018-11-26T13:42:41.381Z,99.90
2018-11-26T13:45:11.132Z,99.90
2018-11-26T13:47:38.859Z,99.90
2018-11-26T13:50:09.642Z,99.90
2018-11-26T13:52:37.251Z,99.90
2018-11-26T13:55:07.140Z,99.90
2018-11-26T13:57:34.739Z,99.90
2018-11-26T14:00:02.461Z,99.90
2018-11-26T14:02:30.027Z,99.90
2018-11-26T14:04:57.504Z,99.90
2018-11-26T14:07:25.092Z,99.90
2018-11-26T14:09:52.588Z,99.90
2018-11-26T14:12:20.069Z,99.90
2018-11-26T14:14:51.697Z,99.90
2018-11-26T14:17:15.313Z,99.90
2018-11-26T14:19:42.801Z,99.90
2018-11-26T14:22:10.634Z,99.90
2018-11-26T14:24:38.060Z,99.90
2018-11-26T14:27:05.745Z,99.90
2018-11-26T14:29:33.297Z,99.90
2018-11-26T14:32:00.819Z,99.90
2018-11-26T14:34:28.396Z,99.90
2018-11-26T14:36:55.897Z,99.90
2018-11-26T14:39:23.452Z,99.90
2018-11-26T14:41:50.944Z,99.90
2018-11-26T14:44:18.514Z,99.90
2018-11-26T14:46:46.020Z,99.90
2018-11-26T14:49:13.607Z,99.90
2018-11-26T14:51:41.116Z,99.90
2018-11-26T14:54:08.715Z,99.90
2018-11-26T14:56:36.271Z,99.80
2018-11-26T14:59:03.821Z,99.90
2018-11-26T15:01:31.426Z,99.90
2018-11-26T15:03:59.017Z,99.90
2018-11-26T15:06:26.575Z,99.90
2018-11-26T15:08:54.132Z,99.70
2018-11-26T15:11:21.716Z,99.70
2018-11-26T15:13:49.329Z,99.80
2018-11-26T15:16:16.980Z,99.70
2018-11-26T15:18:44.523Z,99.50
2018-11-26T15:21:12.174Z,99.50
2018-11-26T15:23:39.732Z,99.20
2018-11-26T15:26:07.310Z,99.00
2018-11-26T15:28:34.890Z,98.90
2018-11-26T15:31:02.816Z,99.00
2018-11-26T15:33:30.303Z,99.10
2018-11-26T15:35:57.917Z,99.30
2018-11-26T15:38:25.397Z,99.30
2018-11-26T15:40:53.318Z,99.40
2018-11-26T15:43:20.807Z,99.60
2018-11-26T15:45:48.410Z,99.70
2018-11-26T15:48:15.970Z,99.90
2018-11-26T15:50:43.610Z,99.90
2018-11-26T15:53:11.198Z,99.90
2018-11-26T15:55:38.841Z,99.90
2018-11-26T15:58:07.388Z,99.90
2018-11-26T16:00:34.909Z,99.90
2018-11-26T16:03:02.687Z,99.90
2018-11-26T16:05:31.175Z,99.90
2018-11-26T16:08:02.447Z,99.90
2018-11-26T16:10:29.982Z,99.90
2018-11-26T16:12:59.353Z,99.90
2018-11-26T16:15:29.453Z,99.90
2018-11-26T16:17:58.624Z,99.90
2018-11-26T16:20:26.967Z,99.90
2018-11-26T16:22:55.301Z,99.90
2018-11-26T16:25:23.619Z,99.90
2018-11-26T16:27:51.208Z,99.90
2018-11-26T16:30:18.893Z,99.90
2018-11-26T16:32:51.114Z,99.90
2018-11-26T16:35:20.995Z,99.90
2018-11-26T16:37:48.578Z,99.90
2018-11-26T16:40:16.724Z,99.90
2018-11-26T16:42:44.314Z,99.90
2018-11-26T16:45:19.818Z,99.50
2018-11-26T16:47:49.658Z,99.50
2018-11-26T16:50:18.347Z,99.30
2018-11-26T16:52:45.826Z,99.50
2018-11-26T16:55:14.135Z,99.60
2018-11-26T16:57:41.711Z,99.40
2018-11-26T17:00:12.880Z,99.20
2018-11-26T17:02:43.040Z,99.40
2018-11-26T17:05:14.048Z,99.50
2018-11-26T17:07:41.642Z,99.50
2018-11-26T17:10:10.011Z,99.70
2018-11-26T17:12:37.818Z,99.70
2018-11-26T17:15:07.798Z,99.60
2018-11-26T17:17:35.397Z,99.30
2018-11-26T17:20:03.028Z,99.40
2018-11-26T17:22:30.613Z,99.50
2018-11-26T17:24:58.141Z,99.30
2018-11-26T17:27:25.724Z,99.30
2018-11-26T17:29:53.270Z,99.40
2018-11-26T17:32:20.945Z,99.40
2018-11-26T17:34:48.441Z,99.40
2018-11-26T17:37:16.059Z,99.20
2018-11-26T17:39:43.583Z,99.40
2018-11-26T17:42:11.225Z,99.40
2018-11-26T17:44:38.744Z,99.60
2018-11-26T17:47:06.416Z,99.70
2018-11-26T17:49:33.980Z,99.90
2018-11-26T17:52:01.648Z,99.90
2018-11-26T17:54:29.170Z,99.90
2018-11-26T17:56:56.765Z,99.90
2018-11-26T17:59:24.341Z,99.90
2018-11-26T18:01:51.835Z,99.80
2018-11-26T18:04:19.540Z,99.90
2018-11-26T18:06:47.611Z,99.90
2018-11-26T18:09:14.693Z,99.90
2018-11-26T18:11:42.259Z,99.90
2018-11-26T18:14:09.965Z,99.90
2018-11-26T18:16:37.497Z,99.90
2018-11-26T18:19:05.678Z,99.90
2018-11-26T18:21:33.218Z,99.90
2018-11-26T18:24:00.899Z,99.90
2018-11-26T18:26:28.485Z,99.90
2018-11-26T18:28:56.068Z,99.90
2018-11-26T18:31:23.702Z,99.80
2018-11-26T18:33:51.394Z,99.70
2018-11-26T18:36:18.994Z,99.70
2018-11-26T18:38:46.585Z,99.80
2018-11-26T18:41:14.242Z,99.80
2018-11-26T18:43:41.812Z,99.80
2018-11-26T18:46:09.396Z,99.90
2018-11-26T18:48:36.923Z,99.70
2018-11-26T18:51:04.594Z,99.40
2018-11-26T18:53:32.827Z,99.10
2018-11-26T18:56:00.856Z,99.20
2018-11-26T18:58:28.399Z,99.30
2018-11-26T19:00:58.446Z,99.20
2018-11-26T19:03:26.041Z,99.10
2018-11-26T19:05:54.171Z,98.70
2018-11-26T19:08:21.757Z,98.80
2018-11-26T19:10:53.406Z,98.30
2018-11-26T19:13:31.532Z,98.50
2018-11-26T19:18:58.491Z,98.50
2018-11-26T19:21:26.059Z,98.50
2018-11-26T19:23:53.678Z,98.40
2018-11-26T19:26:21.322Z,98.10
2018-11-26T19:28:48.878Z,98.10
2018-11-26T20:00:15.318Z,98.10
2018-11-26T20:02:44.150Z,98.30
2018-11-26T20:05:15.674Z,98.20
2018-11-26T20:07:43.218Z,98.00
2018-11-26T20:13:10.292Z,98.10
2018-11-26T20:15:37.916Z,98.00
2018-11-26T20:18:06.061Z,97.70
2018-11-26T20:20:33.686Z,97.80
2018-11-26T20:23:01.373Z,97.60
2018-11-26T20:25:29.021Z,97.30
2018-11-26T20:27:56.557Z,97.30
2018-11-26T20:33:17.099Z,97.50
2018-11-26T20:35:44.761Z,97.60
2018-11-26T20:38:13.753Z,97.70
2018-11-26T20:40:41.395Z,97.60
2018-11-26T20:43:10.139Z,97.70
2018-11-26T20:45:39.275Z,97.80
2018-11-26T20:48:07.829Z,97.90
2018-11-26T20:50:35.388Z,97.90
2018-11-26T20:53:03.092Z,98.00
2018-11-26T20:55:30.675Z,98.20
2018-11-26T20:57:58.331Z,98.50
2018-11-26T21:00:27.282Z,98.40
2018-11-26T21:03:02.866Z,98.20
2018-11-26T21:05:30.455Z,97.80
2018-11-26T21:07:58.101Z,97.50
2018-11-26T21:10:25.654Z,97.40
2018-11-26T21:12:53.360Z,97.20
2018-11-26T21:15:20.845Z,97.20
2018-11-26T21:17:49.745Z,97.30
2018-11-26T21:20:21.739Z,97.60
2018-11-26T21:22:49.349Z,97.50
2018-11-26T21:25:17.248Z,97.70
2018-11-26T21:27:44.802Z,97.90
2018-11-26T21:30:14.312Z,97.80
2018-11-26T21:32:41.851Z,97.60
2018-11-26T21:35:10.649Z,97.50
2018-11-26T21:37:39.073Z,97.50
2018-11-26T21:40:10.936Z,97.20
2018-11-26T21:42:38.462Z,97.20
2018-11-26T21:45:12.484Z,97.10
2018-11-26T21:47:39.999Z,97.50
2018-11-26T21:50:10.234Z,97.60
2018-11-26T21:52:37.813Z,97.80
2018-11-26T21:55:07.561Z,98.30
2018-11-26T21:57:35.057Z,97.90
2018-11-26T22:00:03.912Z,98.10
2018-11-26T22:02:31.467Z,98.10
2018-11-26T22:04:59.125Z,98.30
2018-11-26T22:07:26.603Z,98.40
2018-11-26T22:09:54.190Z,98.00
2018-11-26T22:12:21.675Z,98.40
2018-11-26T22:14:49.261Z,98.20
2018-11-26T22:17:16.876Z,97.80
2018-11-26T22:19:44.376Z,97.70
2018-11-26T22:22:11.953Z,97.40
2018-11-26T22:24:39.449Z,97.30
2018-11-26T22:27:07.021Z,97.30
2018-11-26T22:29:34.473Z,97.20
2018-11-26T22:32:02.095Z,96.90
2018-11-26T22:34:29.594Z,97.00
2018-11-26T22:36:57.165Z,97.20
2018-11-26T22:39:24.665Z,97.30
2018-11-26T22:41:52.216Z,97.10
2018-11-26T22:44:19.672Z,97.20
2018-11-26T22:46:47.243Z,97.20
2018-11-26T22:49:14.736Z,97.40
2018-11-26T22:51:42.327Z,97.30
2018-11-26T22:54:09.800Z,97.60
2018-11-26T22:56:37.354Z,97.40
2018-11-26T22:59:05.315Z,97.30
2018-11-26T23:01:32.842Z,97.40
2018-11-26T23:04:00.348Z,97.40
2018-11-26T23:09:01.500Z,97.60
2018-11-26T23:11:29.076Z,97.70
2018-11-26T23:13:56.638Z,97.60
2018-11-26T23:16:24.171Z,97.40
2018-11-26T23:18:52.212Z,97.40
2018-11-26T23:21:19.752Z,97.20
2018-11-26T23:23:47.316Z,97.10
2018-11-26T23:26:15.104Z,96.80
2018-11-26T23:28:42.718Z,97.00
2018-11-26T23:31:10.218Z,96.90
2018-11-26T23:33:37.755Z,97.30
2018-11-26T23:36:05.269Z,96.90
2018-11-26T23:38:32.800Z,96.70
2018-11-26T23:41:00.335Z,96.60
2018-11-26T23:43:27.879Z,96.50
2018-11-26T23:46:00.484Z,96.50
2018-11-26T23:48:28.079Z,96.50
2018-11-26T23:50:55.540Z,96.40
2018-11-26T23:53:23.124Z,96.30
2018-11-26T23:55:50.601Z,96.20
2018-11-26T23:58:18.807Z,96.00
